Home > Products > Valid Products > TAF

000
FTUS45 KTWC 011738
TAFTUS
TAF
KTUS 011738Z 0118/0218 VRB04KT P6SM FEW090 SCT200
     FM012000 22007KT P6SM SCT080 SCT120
     FM012200 30009KT P6SM VCTS BKN070CB BKN120
      TEMPO 0122/0124 VRB12G25KT TSRA BKN050CB OVC100
     FM020100 20011KT P6SM VCSH BKN070 OVC120
     FM020600 15007KT P6SM SCT120 BKN200=



000
FTUS45 KTWC 011738
TAFDUG
TAF
KDUG 011738Z 0118/0218 17006KT P6SM FEW070 SCT200
     FM012000 20009KT P6SM VCTS SCT060CB BKN100
     FM020100 13008KT P6SM SCT060 BKN100
     FM020700 VRB04KT P6SM SCT100 BKN180=



000
FTUS45 KTWC 011738
TAFOLS
TAF
KOLS 011738Z 0118/0218 18009KT P6SM SCT080 BKN200
     FM012100 23010KT P6SM VCTS SCT060CB BKN100
      TEMPO 0122/0124 VRB12G25KT 4SM TSRA FEW040 BKN050CB
     FM020100 16010KT P6SM VCSH BKN060 OVC120
     FM020500 VRB03KT P6SM SCT100 BKN150=



000
FTUS45 KTWC 011738
TAFOLS
TAF
KOLS 011738Z 0118/0218 18009KT P6SM SCT080 BKN200
     FM012100 23010KT P6SM VCTS SCT060CB BKN100
      TEMPO 0122/0124 VRB12G25KT 4SM TSRA FEW040 BKN050CB
     FM020100 16010KT P6SM VCSH BKN060 OVC120
     FM020500 VRB03KT P6SM SCT100 BKN150=



000
FTUS45 KTWC 011137
TAFOLS
TAF
KOLS 011137Z 0112/0212 07007KT P6SM FEW150 SCT200
     FM011700 VRB04KT P6SM FEW080 SCT250
     FM011900 20007KT P6SM SCT070 BKN120
     FM012100 07010G20KT P6SM VCTS SCT060CB BKN100
     FM020100 16010KT P6SM BKN060 BKN100
     FM020500 VRB03KT P6SM SCT120 BKN200=



000
FTUS45 KTWC 011137
TAFDUG
TAF
KDUG 011137Z 0112/0212 VRB03KT P6SM FEW120 BKN200
     FM011700 17006KT P6SM SCT070 SCT200
     FM012000 20009KT P6SM VCTS SCT060CB BKN100
     FM020100 16008KT P6SM SCT060 BKN100
     FM020500 02007KT P6SM SCT100 BKN180=



000
FTUS45 KTWC 011137
TAFOLS
TAF
KOLS 011137Z 0112/0212 07007KT P6SM FEW150 SCT200
     FM011700 VRB04KT P6SM FEW080 SCT250
     FM011900 20007KT P6SM SCT070 BKN120
     FM012100 07010G20KT P6SM VCTS SCT060CB BKN100
     FM020100 16010KT P6SM BKN060 BKN100
     FM020500 VRB03KT P6SM SCT120 BKN200=



000
FTUS45 KTWC 011137
TAFTUS
TAF
KTUS 011137Z 0112/0212 14009KT P6SM FEW150 SCT200
     FM011700 VRB04KT P6SM FEW090 SCT250
     FM012000 22007KT P6SM SCT080 BKN140
     FM012200 31008KT P6SM VCTS BKN070CB BKN120
     FM020100 12014G22KT P6SM VCSH BKN070 BKN120
     FM020600 14007KT P6SM SCT140 BKN200=



000
FTUS45 KTWC 011137
TAFDUG
TAF
KDUG 011137Z 0112/0212 VRB03KT P6SM FEW120 BKN200
     FM011700 17006KT P6SM SCT070 SCT200
     FM012000 20009KT P6SM VCTS SCT060CB BKN100
     FM020100 16008KT P6SM SCT060 BKN100
     FM020500 02007KT P6SM SCT100 BKN180=



000
FTUS45 KTWC 011137
TAFTUS
TAF
KTUS 011137Z 0112/0212 14009KT P6SM FEW150 SCT200
     FM011700 VRB04KT P6SM FEW090 SCT250
     FM012000 22007KT P6SM SCT080 BKN140
     FM012200 31008KT P6SM VCTS BKN070CB BKN120
     FM020100 12014G22KT P6SM VCSH BKN070 BKN120
     FM020600 14007KT P6SM SCT140 BKN200=



000
FTUS45 KTWC 011137
TAFOLS
TAF
KOLS 011137Z 0112/0212 07007KT P6SM FEW150 SCT200
     FM011700 VRB04KT P6SM FEW080 SCT250
     FM011900 20007KT P6SM SCT070 BKN120
     FM012100 07010G20KT P6SM VCTS SCT060CB BKN100
     FM020100 16010KT P6SM BKN060 BKN100
     FM020500 VRB03KT P6SM SCT120 BKN200=



000
FTUS45 KTWC 011137
TAFOLS
TAF
KOLS 011137Z 0112/0212 07007KT P6SM FEW150 SCT200
     FM011700 VRB04KT P6SM FEW080 SCT250
     FM011900 20007KT P6SM SCT070 BKN120
     FM012100 07010G20KT P6SM VCTS SCT060CB BKN100
     FM020100 16010KT P6SM BKN060 BKN100
     FM020500 VRB03KT P6SM SCT120 BKN200=



000
FTUS45 KTWC 010537
TAFDUG
TAF
KDUG 010537Z 0106/0206 01006KT P6SM SCT070 BKN120 BKN250
     FM011000 VRB05KT P6SM FEW120 SCT250
     FM011900 18006KT P6SM SCT050 SCT250
     FM012100 20009KT P6SM VCTS SCT070CB BKN150
     FM020100 16008KT P6SM SCT070 BKN130 BKN200=



000
FTUS45 KTWC 010537
TAFOLS
TAF
KOLS 010537Z 0106/0206 VRB04KT P6SM SCT080 SCT220
     FM012000 16009KT P6SM VCTS SCT070CB BKN140
     FM020000 VRB06KT P6SM VCSH SCT070 BKN120
     FM020300 VRB03KT P6SM SCT120 SCT250=



000
FTUS45 KTWC 010537
TAFTUS
TAF
KTUS 010537Z 0106/0206 11006KT P6SM SCT070 BKN120 OVC220
     FM010900 14007KT P6SM SCT120 BKN250
     FM011700 VRB05KT P6SM SCT250
     FM012000 21008KT P6SM SCT080 BKN140
     FM012200 22008KT P6SM VCTS SCT080CB BKN120
     FM020100 27009KT P6SM VCSH SCT080 BKN130=



000
FTUS45 KTWC 010537
TAFTUS
TAF
KTUS 010537Z 0106/0206 11006KT P6SM SCT070 BKN120 OVC220
     FM010900 14007KT P6SM SCT120 BKN250
     FM011700 VRB05KT P6SM SCT250
     FM012000 21008KT P6SM SCT080 BKN140
     FM012200 22008KT P6SM VCTS SCT080CB BKN120
     FM020100 27009KT P6SM VCSH SCT080 BKN130=



000
FTUS45 KTWC 010537
TAFOLS
TAF
KOLS 010537Z 0106/0206 VRB04KT P6SM SCT080 SCT220
     FM012000 16009KT P6SM VCTS SCT070CB BKN140
     FM020000 VRB06KT P6SM VCSH SCT070 BKN120
     FM020300 VRB03KT P6SM SCT120 SCT250=



000
FTUS45 KTWC 010537
TAFOLS
TAF
KOLS 010537Z 0106/0206 VRB04KT P6SM SCT080 SCT220
     FM012000 16009KT P6SM VCTS SCT070CB BKN140
     FM020000 VRB06KT P6SM VCSH SCT070 BKN120
     FM020300 VRB03KT P6SM SCT120 SCT250=



000
FTUS45 KTWC 010537
TAFDUG
TAF
KDUG 010537Z 0106/0206 01006KT P6SM SCT070 BKN120 BKN250
     FM011000 VRB05KT P6SM FEW120 SCT250
     FM011900 18006KT P6SM SCT050 SCT250
     FM012100 20009KT P6SM VCTS SCT070CB BKN150
     FM020100 16008KT P6SM SCT070 BKN130 BKN200=



000
FTUS45 KTWC 010537
TAFOLS
TAF
KOLS 010537Z 0106/0206 VRB04KT P6SM SCT080 SCT220
     FM012000 16009KT P6SM VCTS SCT070CB BKN140
     FM020000 VRB06KT P6SM VCSH SCT070 BKN120
     FM020300 VRB03KT P6SM SCT120 SCT250=



000
FTUS45 KTWC 010310 AAA
TAFTUS
TAF AMD
KTUS 010310Z 0103/0124 VRB06KT P6SM SCT070 OVC120
      TEMPO 0103/0106 -SHRA BKN070 OVC120
     FM010700 14007KT P6SM SCT100 BKN200
     FM011500 18005KT P6SM SCT250
     FM012100 23008KT P6SM VCSH SCT080 BKN140=



000
FTUS45 KTWC 312330
TAFDUG
TAF
KDUG 312330Z 0100/0124 12010KT P6SM VCTS SCT060CB BKN120
     FM010300 14012KT P6SM VCSH SCT070 BKN100 OVC150
     FM010500 VRB06KT P6SM SCT070 BKN120
     FM011900 20009KT P6SM SCT050 SCT250=



000
FTUS45 KTWC 312330
TAFOLS
TAF
KOLS 312330Z 0100/0124 15009KT P6SM VCTS BKN070CB BKN110
      TEMPO 0100/0102 VRB20G35KT 6SM TSRA OVC070CB
     FM010200 07005KT P6SM VCSH SCT070 BKN110
     FM010500 VRB04KT P6SM SCT080 BKN150 BKN220
     FM012100 16009KT P6SM VCSH SCT070 BKN140=



000
FTUS45 KTWC 312330
TAFTUS
TAF
KTUS 312330Z 0100/0124 27014KT P6SM VCTS SCT070CB BKN120 BKN220
     FM010200 25008KT P6SM VCSH BKN070 OVC120
     FM010700 14007KT P6SM SCT100 BKN200
     FM011500 18005KT P6SM SCT250
     FM012100 23008KT P6SM VCSH SCT080 BKN140=



000
FTUS45 KTWC 312330
TAFDUG
TAF
KDUG 312330Z 0100/0124 12010KT P6SM VCTS SCT060CB BKN120
     FM010300 14012KT P6SM VCSH SCT070 BKN100 OVC150
     FM010500 VRB06KT P6SM SCT070 BKN120
     FM011900 20009KT P6SM SCT050 SCT250=



000
FTUS45 KTWC 312330
TAFOLS
TAF
KOLS 312330Z 0100/0124 15009KT P6SM VCTS BKN070CB BKN110
      TEMPO 0100/0102 VRB20G35KT 6SM TSRA OVC070CB
     FM010200 07005KT P6SM VCSH SCT070 BKN110
     FM010500 VRB04KT P6SM SCT080 BKN150 BKN220
     FM012100 16009KT P6SM VCSH SCT070 BKN140=



000
FTUS45 KTWC 312330
TAFOLS
TAF
KOLS 312330Z 0100/0124 15009KT P6SM VCTS BKN070CB BKN110
      TEMPO 0100/0102 VRB20G35KT 6SM TSRA OVC070CB
     FM010200 07005KT P6SM VCSH SCT070 BKN110
     FM010500 VRB04KT P6SM SCT080 BKN150 BKN220
     FM012100 16009KT P6SM VCSH SCT070 BKN140=



000
FTUS45 KTWC 312330
TAFTUS
TAF
KTUS 312330Z 0100/0124 27014KT P6SM VCTS SCT070CB BKN120 BKN220
     FM010200 25008KT P6SM VCSH BKN070 OVC120
     FM010700 14007KT P6SM SCT100 BKN200
     FM011500 18005KT P6SM SCT250
     FM012100 23008KT P6SM VCSH SCT080 BKN140=



000
FTUS45 KTWC 312330
TAFOLS
TAF
KOLS 312330Z 0100/0124 15009KT P6SM VCTS BKN070CB BKN110
      TEMPO 0100/0102 VRB20G35KT 6SM TSRA OVC070CB
     FM010200 07005KT P6SM VCSH SCT070 BKN110
     FM010500 VRB04KT P6SM SCT080 BKN150 BKN220
     FM012100 16009KT P6SM VCSH SCT070 BKN140=



000
FTUS45 KTWC 312133 AAB
TAFOLS
TAF AMD
KOLS 312133Z 3122/0118 35009KT P6SM VCTS BKN060CB BKN090
      TEMPO 3122/3123 VRB20G35KT 2SM TSRA SCT025 BKN035CB
     FM010200 07005KT P6SM SCT060 OVC090
     FM010700 VRB04KT P6SM SCT080 BKN150=



000
FTUS45 KTWC 312133 AAB
TAFOLS
TAF AMD
KOLS 312133Z 3122/0118 35009KT P6SM VCTS BKN060CB BKN090
      TEMPO 3122/3123 VRB20G35KT 2SM TSRA SCT025 BKN035CB
     FM010200 07005KT P6SM SCT060 OVC090
     FM010700 VRB04KT P6SM SCT080 BKN150=



000
FTUS45 KTWC 312053 AAB
TAFTUS
TAF AMD
KTUS 312053Z 3121/0118 27011KT P6SM VCTS SCT070CB BKN100
      TEMPO 3121/3123 VRB12G25KT TSRA BKN060CB OVC100
     FM010200 20008KT P6SM BKN070 OVC100
     FM010700 14007KT P6SM SCT100 BKN200=



000
FTUS45 KTWC 312000 AAA
TAFOLS
TAF AMD
KOLS 312000Z 3120/0118 VRB04KT P6SM SCT080 SCT120
      TEMPO 3120/3121 VRB12G20KT P6SM TSRA BKN070CB OVC100
     FM312100 13009KT P6SM VCTS BKN060CB BKN090
     FM010200 07005KT P6SM SCT060 OVC090
     FM010700 VRB04KT P6SM SCT080 BKN150=



000
FTUS45 KTWC 311732
TAFOLS
TAF
KOLS 311732Z 3118/0118 VRB04KT P6SM SCT080 SCT120
     FM312100 13009KT P6SM VCTS BKN060CB BKN090
     FM010200 07005KT P6SM SCT060 OVC090
     FM010700 VRB04KT P6SM SCT080 BKN150=



000
FTUS45 KTWC 311732
TAFDUG
TAF
KDUG 311732Z 3118/0118 12008KT P6SM FEW070 SCT120
     FM312200 09010KT P6SM VCSH SCT060 BKN100
     FM010300 05007KT P6SM FEW070 SCT100 OVC150
     FM010800 VRB04KT P6SM SCT080 BKN120=



000
FTUS45 KTWC 311732
TAFTUS
TAF
KTUS 311732Z 3118/0118 13008KT P6SM FEW100 SCT150
     FM312100 27011KT P6SM VCTS SCT070CB BKN100
     FM010200 20008KT P6SM BKN070 OVC100
     FM010700 14007KT P6SM SCT100 BKN200=



000
FTUS45 KTWC 311732
TAFOLS
TAF
KOLS 311732Z 3118/0118 VRB04KT P6SM SCT080 SCT120
     FM312100 13009KT P6SM VCTS BKN060CB BKN090
     FM010200 07005KT P6SM SCT060 OVC090
     FM010700 VRB04KT P6SM SCT080 BKN150=



000
FTUS45 KTWC 311140
TAFTUS
TAF
KTUS 311140Z 3112/0112 15008KT P6SM SCT120 BKN200
     FM311500 13010KT P6SM VCSH BKN100 OVC180
     FM312000 25010KT P6SM SCT080 BKN110
     FM312300 27012KT P6SM VCTS BKN070CB BKN100
     FM010300 20007KT P6SM SCT070 BKN100
     FM010700 14007KT P6SM SCT120 BKN200=



000
FTUS45 KTWC 311140
TAFDUG
TAF
KDUG 311140Z 3112/0112 08014G25KT P6SM VCTS BKN060CB BKN100
     FM311400 02010KT P6SM VCSH FEW060 BKN100 OVC200
     FM311700 13005KT P6SM FEW070 SCT100 BKN200
     FM312000 18010KT P6SM SCT060 BKN100
     FM010300 06007KT P6SM FEW070 SCT100 BKN200=



000
FTUS45 KTWC 311140
TAFOLS
TAF
KOLS 311140Z 3112/0112 VRB04KT P6SM BKN110 OVC200
     FM311500 13010KT P6SM SCT100 BKN200
     FM312000 22010KT P6SM SCT070 BKN100
     FM312200 31012KT P6SM VCTS BKN060CB BKN090
     FM010200 20007KT P6SM SCT060 BKN090
     FM010700 VRB03KT P6SM SCT110 BKN200=



000
FTUS45 KTWC 311140
TAFOLS
TAF
KOLS 311140Z 3112/0112 VRB04KT P6SM BKN110 OVC200
     FM311500 13010KT P6SM SCT100 BKN200
     FM312000 22010KT P6SM SCT070 BKN100
     FM312200 31012KT P6SM VCTS BKN060CB BKN090
     FM010200 20007KT P6SM SCT060 BKN090
     FM010700 VRB03KT P6SM SCT110 BKN200=



000
FTUS45 KTWC 311140
TAFDUG
TAF
KDUG 311140Z 3112/0112 08014G25KT P6SM VCTS BKN060CB BKN100
     FM311400 02010KT P6SM VCSH FEW060 BKN100 OVC200
     FM311700 13005KT P6SM FEW070 SCT100 BKN200
     FM312000 18010KT P6SM SCT060 BKN100
     FM010300 06007KT P6SM FEW070 SCT100 BKN200=



000
FTUS45 KTWC 311140
TAFTUS
TAF
KTUS 311140Z 3112/0112 15008KT P6SM SCT120 BKN200
     FM311500 13010KT P6SM VCSH BKN100 OVC180
     FM312000 25010KT P6SM SCT080 BKN110
     FM312300 27012KT P6SM VCTS BKN070CB BKN100
     FM010300 20007KT P6SM SCT070 BKN100
     FM010700 14007KT P6SM SCT120 BKN200=



000
FTUS45 KTWC 311140
TAFOLS
TAF
KOLS 311140Z 3112/0112 VRB04KT P6SM BKN110 OVC200
     FM311500 13010KT P6SM SCT100 BKN200
     FM312000 22010KT P6SM SCT070 BKN100
     FM312200 31012KT P6SM VCTS BKN060CB BKN090
     FM010200 20007KT P6SM SCT060 BKN090
     FM010700 VRB03KT P6SM SCT110 BKN200=



000
FTUS45 KTWC 311140
TAFOLS
TAF
KOLS 311140Z 3112/0112 VRB04KT P6SM BKN110 OVC200
     FM311500 13010KT P6SM SCT100 BKN200
     FM312000 22010KT P6SM SCT070 BKN100
     FM312200 31012KT P6SM VCTS BKN060CB BKN090
     FM010200 20007KT P6SM SCT060 BKN090
     FM010700 VRB03KT P6SM SCT110 BKN200=



000
FTUS45 KTWC 310520
TAFTUS
TAF
KTUS 310520Z 3106/0106 22006KT P6SM FEW080 SCT150 SCT250
     FM310800 15008KT P6SM FEW150 SCT250
     FM312000 25010KT P6SM VCSH SCT090 SCT150
     FM010300 20007KT P6SM VCSH SCT090 BKN120=



000
FTUS45 KTWC 310520
TAFTUS
TAF
KTUS 310520Z 3106/0106 22006KT P6SM FEW080 SCT150 SCT250
     FM310800 15008KT P6SM FEW150 SCT250
     FM312000 25010KT P6SM VCSH SCT090 SCT150
     FM010300 20007KT P6SM VCSH SCT090 BKN120=



000
FTUS45 KTWC 310520
TAFOLS
TAF
KOLS 310520Z 3106/0106 VRB04KT P6SM FEW130 SCT250
     FM312000 27007KT P6SM VCSH SCT070 BKN150
     FM010300 02005KT P6SM VCSH SCT070 OVC100=



000
FTUS45 KTWC 310520
TAFDUG
TAF
KDUG 310520Z 3106/0106 VRB04KT P6SM FEW120 SCT250
     FM312000 16010KT P6SM VCSH SCT070 BKN150
     FM010300 06007KT P6SM VCSH SCT070 OVC100=



000
FTUS45 KTWC 310520
TAFOLS
TAF
KOLS 310520Z 3106/0106 VRB04KT P6SM FEW130 SCT250
     FM312000 27007KT P6SM VCSH SCT070 BKN150
     FM010300 02005KT P6SM VCSH SCT070 OVC100=



000
FTUS45 KTWC 310520
TAFDUG
TAF
KDUG 310520Z 3106/0106 VRB04KT P6SM FEW120 SCT250
     FM312000 16010KT P6SM VCSH SCT070 BKN150
     FM010300 06007KT P6SM VCSH SCT070 OVC100=



000
FTUS45 KTWC 310520
TAFOLS
TAF
KOLS 310520Z 3106/0106 VRB04KT P6SM FEW130 SCT250
     FM312000 27007KT P6SM VCSH SCT070 BKN150
     FM010300 02005KT P6SM VCSH SCT070 OVC100=



000
FTUS45 KTWC 310520
TAFOLS
TAF
KOLS 310520Z 3106/0106 VRB04KT P6SM FEW130 SCT250
     FM312000 27007KT P6SM VCSH SCT070 BKN150
     FM010300 02005KT P6SM VCSH SCT070 OVC100=



000
FTUS45 KTWC 310211 AAA
TAFTUS
TAF AMD
KTUS 310211Z 3102/3124 18007KT P6SM VCTS SCT080CB SCT140 BKN200
     FM310300 14006KT P6SM FEW080 SCT140 BKN200
     FM310800 15008KT P6SM FEW140 SCT250
     FM312000 20006KT P6SM VCSH SCT080 SCT150=



000
FTUS45 KTWC 310211 AAA
TAFTUS
TAF AMD
KTUS 310211Z 3102/3124 18007KT P6SM VCTS SCT080CB SCT140 BKN200
     FM310300 14006KT P6SM FEW080 SCT140 BKN200
     FM310800 15008KT P6SM FEW140 SCT250
     FM312000 20006KT P6SM VCSH SCT080 SCT150=



000
FTUS45 KTWC 302320
TAFOLS
TAF
KOLS 302320Z 3100/3124 22007KT P6SM VCTS SCT060CB BKN110 OVC200
      TEMPO 3100/3101 VRB20G35KT 4SM TSRA SCT030 BKN060CB
     FM310200 13005KT P6SM SCT080 SCT130 BKN200
     FM310700 VRB03KT P6SM FEW130 SCT250
     FM312000 14007KT P6SM SCT060 BKN150=



000
FTUS45 KTWC 302320
TAFTUS
TAF
KTUS 302320Z 3100/3124 31009KT P6SM SCT080 SCT140 BKN200
     FM310300 14006KT P6SM FEW080 SCT140 BKN200
     FM310800 15008KT P6SM FEW140 SCT250
     FM312000 20006KT P6SM VCSH SCT080 SCT150=



000
FTUS45 KTWC 302320
TAFDUG
TAF
KDUG 302320Z 3100/3124 10007KT P6SM VCTS SCT050CB BKN100 OVC200
      TEMPO 3100/3102 VRB20G25KT 4SM TSRA SCT025 BKN040CB
     FM310200 07008KT P6SM SCT070 SCT120 BKN200
     FM310600 VRB04KT P6SM FEW120 SCT250
     FM312000 16010KT P6SM VCSH SCT060 BKN150=



000
FTUS45 KTWC 302320
TAFOLS
TAF
KOLS 302320Z 3100/3124 22007KT P6SM VCTS SCT060CB BKN110 OVC200
      TEMPO 3100/3101 VRB20G35KT 4SM TSRA SCT030 BKN060CB
     FM310200 13005KT P6SM SCT080 SCT130 BKN200
     FM310700 VRB03KT P6SM FEW130 SCT250
     FM312000 14007KT P6SM SCT060 BKN150=



000
FTUS45 KTWC 301727
TAFOLS
TAF
KOLS 301727Z 3018/3118 29007KT P6SM SCT070
     FM302000 24006KT P6SM SCT060 SCT130
     FM302200 22007KT P6SM VCTS SCT060CB BKN110 OVC200
      TEMPO 3022/3102 VRB20G35KT 4SM TSRA SCT030 BKN060CB
     FM310200 13005KT P6SM SCT080 SCT130 BKN200
     FM310700 VRB03KT P6SM FEW130 SCT250=



000
FTUS45 KTWC 301727
TAFDUG
TAF
KDUG 301727Z 3018/3118 11008KT P6SM FEW050
     FM301900 15009KT P6SM SCT050
     FM302200 10007KT P6SM VCTS SCT050CB BKN100 OVC200
      TEMPO 3022/3102 VRB20G25KT 4SM TSRA SCT025 BKN040CB
     FM310200 07008KT P6SM SCT070 SCT120 BKN200
     FM310600 VRB04KT P6SM FEW120 SCT250=



000
FTUS45 KTWC 301727
TAFTUS
TAF
KTUS 301727Z 3018/3118 14009KT P6SM FEW080
     FM302000 24007KT P6SM SCT080 SCT140
     FM302300 31009KT P6SM SCT080 SCT140 BKN200
     FM310300 14006KT P6SM FEW080 SCT140 BKN200
     FM310800 15008KT P6SM FEW140 SCT250=



000
FTUS45 KTWC 301727
TAFOLS
TAF
KOLS 301727Z 3018/3118 29007KT P6SM SCT070
     FM302000 24006KT P6SM SCT060 SCT130
     FM302200 22007KT P6SM VCTS SCT060CB BKN110 OVC200
      TEMPO 3022/3102 VRB20G35KT 4SM TSRA SCT030 BKN060CB
     FM310200 13005KT P6SM SCT080 SCT130 BKN200
     FM310700 VRB03KT P6SM FEW130 SCT250=



000
FTUS45 KTWC 301727
TAFDUG
TAF
KDUG 301727Z 3018/3118 11008KT P6SM FEW050
     FM301900 15009KT P6SM SCT050
     FM302200 10007KT P6SM VCTS SCT050CB BKN100 OVC200
      TEMPO 3022/3102 VRB20G25KT 4SM TSRA SCT025 BKN040CB
     FM310200 07008KT P6SM SCT070 SCT120 BKN200
     FM310600 VRB04KT P6SM FEW120 SCT250=



000
FTUS45 KTWC 301727
TAFTUS
TAF
KTUS 301727Z 3018/3118 14009KT P6SM FEW080
     FM302000 24007KT P6SM SCT080 SCT140
     FM302300 31009KT P6SM SCT080 SCT140 BKN200
     FM310300 14006KT P6SM FEW080 SCT140 BKN200
     FM310800 15008KT P6SM FEW140 SCT250=



000
FTUS45 KTWC 301727
TAFOLS
TAF
KOLS 301727Z 3018/3118 29007KT P6SM SCT070
     FM302000 24006KT P6SM SCT060 SCT130
     FM302200 22007KT P6SM VCTS SCT060CB BKN110 OVC200
      TEMPO 3022/3102 VRB20G35KT 4SM TSRA SCT030 BKN060CB
     FM310200 13005KT P6SM SCT080 SCT130 BKN200
     FM310700 VRB03KT P6SM FEW130 SCT250=



000
FTUS45 KTWC 301125
TAFOLS
TAF
KOLS 301125Z 3012/3112 05005KT P6SM SCT140 BKN250
     FM301900 20006KT P6SM SCT070 SCT250
     FM302100 30007KT P6SM VCSH SCT060 BKN110 OVC200
     FM310100 VRB04KT P6SM FEW070 SCT120 BKN200
     FM310600 VRB03KT P6SM FEW140 SCT250=



000
FTUS45 KTWC 301125
TAFOLS
TAF
KOLS 301125Z 3012/3112 05005KT P6SM SCT140 BKN250
     FM301900 20006KT P6SM SCT070 SCT250
     FM302100 30007KT P6SM VCSH SCT060 BKN110 OVC200
     FM310100 VRB04KT P6SM FEW070 SCT120 BKN200
     FM310600 VRB03KT P6SM FEW140 SCT250=



000
FTUS45 KTWC 301125
TAFTUS
TAF
KTUS 301125Z 3012/3112 14007KT P6SM SCT150 BKN250
     FM301900 25006KT P6SM SCT080 SCT250
     FM302200 31009KT P6SM SCT070 BKN120 BKN200
     FM310300 20005KT P6SM FEW080 SCT140 BKN200
     FM310700 14007KT P6SM FEW150 SCT250=



000
FTUS45 KTWC 301125
TAFDUG
TAF
KDUG 301125Z 3012/3112 VRB04KT P6SM SCT120 BKN200
     FM301900 17009KT P6SM SCT070 BKN200
     FM302100 27007KT P6SM SCT060 BKN100 OVC180
     FM310300 10005KT P6SM FEW070 BKN120 BKN200
     FM310800 VRB03KT P6SM SCT120 BKN200=



000
FTUS45 KTWC 301125
TAFDUG
TAF
KDUG 301125Z 3012/3112 VRB04KT P6SM SCT120 BKN200
     FM301900 17009KT P6SM SCT070 BKN200
     FM302100 27007KT P6SM SCT060 BKN100 OVC180
     FM310300 10005KT P6SM FEW070 BKN120 BKN200
     FM310800 VRB03KT P6SM SCT120 BKN200=



000
FTUS45 KTWC 301125
TAFTUS
TAF
KTUS 301125Z 3012/3112 14007KT P6SM SCT150 BKN250
     FM301900 25006KT P6SM SCT080 SCT250
     FM302200 31009KT P6SM SCT070 BKN120 BKN200
     FM310300 20005KT P6SM FEW080 SCT140 BKN200
     FM310700 14007KT P6SM FEW150 SCT250=



000
FTUS45 KTWC 301125
TAFOLS
TAF
KOLS 301125Z 3012/3112 05005KT P6SM SCT140 BKN250
     FM301900 20006KT P6SM SCT070 SCT250
     FM302100 30007KT P6SM VCSH SCT060 BKN110 OVC200
     FM310100 VRB04KT P6SM FEW070 SCT120 BKN200
     FM310600 VRB03KT P6SM FEW140 SCT250=



000
FTUS45 KTWC 301125
TAFOLS
TAF
KOLS 301125Z 3012/3112 05005KT P6SM SCT140 BKN250
     FM301900 20006KT P6SM SCT070 SCT250
     FM302100 30007KT P6SM VCSH SCT060 BKN110 OVC200
     FM310100 VRB04KT P6SM FEW070 SCT120 BKN200
     FM310600 VRB03KT P6SM FEW140 SCT250=



000
FTUS45 KTWC 300520
TAFTUS
TAF
KTUS 300520Z 3006/3106 14007KT P6SM SCT070 BKN150 BKN250
     FM301900 30006KT P6SM SCT080 SCT150 SCT200
     FM302200 28009KT P6SM VCSH SCT080 BKN200
     FM310300 16005KT P6SM FEW080 BKN150 BKN200=



000
FTUS45 KTWC 300520
TAFTUS
TAF
KTUS 300520Z 3006/3106 14007KT P6SM SCT070 BKN150 BKN250
     FM301900 30006KT P6SM SCT080 SCT150 SCT200
     FM302200 28009KT P6SM VCSH SCT080 BKN200
     FM310300 16005KT P6SM FEW080 BKN150 BKN200=



000
FTUS45 KTWC 300520
TAFOLS
TAF
KOLS 300520Z 3006/3106 07004KT P6SM SCT070 BKN120 BKN200
     FM301700 30005KT P6SM SCT070 SCT120 SCT200
     FM302100 24008KT P6SM VCSH SCT070 BKN200=



000
FTUS45 KTWC 300520
TAFOLS
TAF
KOLS 300520Z 3006/3106 07004KT P6SM SCT070 BKN120 BKN200
     FM301700 30005KT P6SM SCT070 SCT120 SCT200
     FM302100 24008KT P6SM VCSH SCT070 BKN200=



000
FTUS45 KTWC 300520
TAFOLS
TAF
KOLS 300520Z 3006/3106 07004KT P6SM SCT070 BKN120 BKN200
     FM301700 30005KT P6SM SCT070 SCT120 SCT200
     FM302100 24008KT P6SM VCSH SCT070 BKN200=



000
FTUS45 KTWC 300520
TAFOLS
TAF
KOLS 300520Z 3006/3106 07004KT P6SM SCT070 BKN120 BKN200
     FM301700 30005KT P6SM SCT070 SCT120 SCT200
     FM302100 24008KT P6SM VCSH SCT070 BKN200=



000
FTUS45 KTWC 300520
TAFDUG
TAF
KDUG 300520Z 3006/3106 10005KT P6SM VCSH SCT060 BKN110 BKN200
     FM301000 12005KT P6SM SCT070 BKN120 BKN200
     FM302100 17009KT P6SM VCSH SCT070 BKN200
     FM310300 10005KT P6SM FEW070 BKN120 BKN200=



000
FTUS45 KTWC 300520
TAFDUG
TAF
KDUG 300520Z 3006/3106 10005KT P6SM VCSH SCT060 BKN110 BKN200
     FM301000 12005KT P6SM SCT070 BKN120 BKN200
     FM302100 17009KT P6SM VCSH SCT070 BKN200
     FM310300 10005KT P6SM FEW070 BKN120 BKN200=



000
FTUS45 KTWC 300258 AAA
TAFDUG
TAF AMD
KDUG 300258Z 3003/3024 VRB06KT P6SM VCSH SCT060 BKN120
      TEMPO 3003/3005 -TSRA BKN060CB
     FM300500 10005KT P6SM FEW070 BKN110
     FM302100 17009KT P6SM VCSH SCT070 BKN200=



000
FTUS45 KTWC 300255 AAC
TAFTUS
TAF AMD
KTUS 300255Z 3003/3024 11011KT P6SM VCSH SCT080 BKN110
      TEMPO 3003/3004 -TSRA BKN080CB
     FM300500 14007KT P6SM SCT100 BKN250
     FM302200 28009KT P6SM VCSH SCT080 BKN200=



000
FTUS45 KTWC 300202 AAB
TAFOLS
TAF AMD
KOLS 300202Z 3002/3024 06008KT P6SM VCSH SCT060 BKN100
      TEMPO 3002/3003 -SHRA BKN060
     FM300500 07004KT P6SM FEW070 BKN120
     FM302100 24008KT P6SM VCSH SCT070 BKN200=



000
FTUS45 KTWC 300202 AAB
TAFOLS
TAF AMD
KOLS 300202Z 3002/3024 06008KT P6SM VCSH SCT060 BKN100
      TEMPO 3002/3003 -SHRA BKN060
     FM300500 07004KT P6SM FEW070 BKN120
     FM302100 24008KT P6SM VCSH SCT070 BKN200=



000
FTUS45 KTWC 300201 AAB
TAFTUS
TAF AMD
KTUS 300201Z 3002/3024 11011KT P6SM VCSH SCT080 BKN110
      TEMPO 3002/3003 VRB15G25KT 6SM TSRA BKN080CB
     FM300500 14007KT P6SM SCT100 BKN250
     FM302200 28009KT P6SM VCSH SCT080 BKN200=



000
FTUS45 KTWC 300040 AAA
TAFOLS
TAF AMD
KOLS 300040Z 3001/3024 VRB08KT P6SM VCTS SCT050CB BKN100
      TEMPO 3001/3003 VRB20G35KT 1SM TSRA BKN025CB OVC050
     FM300300 04006KT P6SM VCSH SCT060 BKN100
     FM300500 07004KT P6SM FEW070 BKN120
     FM302100 24008KT P6SM VCSH SCT070 BKN200=



000
FTUS45 KTWC 300040 AAA
TAFOLS
TAF AMD
KOLS 300040Z 3001/3024 VRB08KT P6SM VCTS SCT050CB BKN100
      TEMPO 3001/3003 VRB20G35KT 1SM TSRA BKN025CB OVC050
     FM300300 04006KT P6SM VCSH SCT060 BKN100
     FM300500 07004KT P6SM FEW070 BKN120
     FM302100 24008KT P6SM VCSH SCT070 BKN200=



000
FTUS45 KTWC 292331
TAFOLS
TAF
KOLS 292331Z 3000/3024 VRB08KT P6SM VCTS SCT050CB BKN100
      TEMPO 3000/3001 VRB20G35KT 1SM TSRA BKN025CB OVC050
     FM300100 04006KT P6SM VCSH SCT060 BKN100
     FM300500 07004KT P6SM FEW070 BKN120
     FM302100 24008KT P6SM VCSH SCT070 BKN200=



000
FTUS45 KTWC 292331
TAFDUG
TAF
KDUG 292331Z 3000/3024 15008KT P6SM VCTS SCT050CB BKN120
      TEMPO 3000/3001 VRB20G35KT 4SM TSRA SCT025 BKN040CB
     FM300100 15007KT P6SM VCSH SCT060 BKN110
     FM300500 12006KT P6SM FEW070 BKN110
     FM302100 17009KT P6SM VCSH SCT070 BKN200=



000
FTUS45 KTWC 292331
TAFOLS
TAF
KOLS 292331Z 3000/3024 VRB08KT P6SM VCTS SCT050CB BKN100
      TEMPO 3000/3001 VRB20G35KT 1SM TSRA BKN025CB OVC050
     FM300100 04006KT P6SM VCSH SCT060 BKN100
     FM300500 07004KT P6SM FEW070 BKN120
     FM302100 24008KT P6SM VCSH SCT070 BKN200=



000
FTUS45 KTWC 292331
TAFTUS
TAF
KTUS 292331Z 3000/3024 31009KT P6SM VCSH SCT080 BKN110
      TEMPO 3001/3002 VRB15G30KT 6SM TSRA BKN080CB
     FM300500 14007KT P6SM SCT100 BKN250
     FM302200 28009KT P6SM VCSH SCT080 BKN200=



    US Dept of Commerce
    National Oceanic and Atmospheric Administration
    National Weather Service
    1325 East West Highway
    Silver Spring, MD 20910
    Page Author: NWS Internet Services Team
Disclaimer
Information Quality
Credits
Glossary
Privacy Policy
Freedom of Information Act (FOIA)
About Us
Career Opportunities